Pagrindinis puslapis
METAR-TAF:

METAR-TAF

Oro uostai :

Tsushima, Japonija

platuma: 34-17N, ilguma: 129-20E, Aukštis: 63 m

Dabartinis oras

Ataskaita buvo paskelbta 10 minutes, ne 11:00 UTC
Vėjas 14 kt iš Rytų/Šiaurės Rytų su gūsio iki 28 kt, svyruoja nuo Šiaurės ir Rytų
Temperatūra 12°C
Drėgmė 58%
Slėgis 1022 hPa
Matomumas 10 km arba daugiau
Mažai debesys ne aukštis 2000 ft
Išsisklaidę debesys ne aukštis 2500 ft
Su prošvaistėmis ne aukštis 3500 ft

METAR: RJDT 261100Z 06014G28KT 010V090 9999 FEW020 SCT025 BKN035 12/04 Q1022

Laikas: 20:10 (11:10 UTC)


TAF: trūkstamas

Orai ataskaitas ir orų prognozės (METAR, TAF).

turimą stotys yra geltonos ir raudonos taškus žemėlapyje.

Perkelti pele per norėdami pamatyti stoties vardą.

Tada spustelėkite, norėdami matyti oro stebėjimo ir prognozės.

Norėdami pakeisti žemėlapį: spustelėkite ant žalios mygtukų su juodo kryžiaus žemyn,; žalią mygtuką su brūkšneliu, jei norite nutolinti; arba žalių rodyklių gretimoms žemėlapius.


METAR-TAF: